Terminal Aerodrome Forecast
Issued by NWS Sterling, VA

Current Version | Previous Version | Graphics & Text | Print | Product List | Glossary On
Versions: 1 2 3 4 5 6 7 8 9 10 11 12 13 14 15 16 17 18 19 20 21 22 23 24 25 26 27
000
FTUS41 KLWX 191123
TAFIAD
TAF
KIAD 191123Z 1912/2018 31004KT P6SM BKN028
     FM191300 31005KT P6SM SCT035 SCT250
     FM192200 24004KT P6SM SCT035 SCT250
     FM200000 VRB03KT P6SM FEW250
     FM200900 00000KT P6SM BKN060
     FM201300 14004KT 3SM -RA BR OVC020=

USA.gov is the U.S. government's official web portal to all federal, state and local government web resources and services.